createdAt,value
2022-11-24T00:04:49.821Z,0
2022-11-24T00:20:56.495Z,0
2022-11-24T00:31:24.939Z,0
2022-11-24T00:36:43.398Z,0
2022-11-24T00:47:22.057Z,0
2022-11-24T01:03:20.086Z,0
2022-11-24T01:13:58.817Z,0
2022-11-24T01:24:38.064Z,0
2022-11-24T01:29:57.809Z,0
2022-11-24T01:40:35.457Z,0
2022-11-24T01:51:13.115Z,0
2022-11-24T01:56:32.081Z,0
2022-11-24T02:07:10.086Z,0
2022-11-24T02:12:29.635Z,0
2022-11-24T02:23:07.827Z,0
2022-11-24T02:39:05.032Z,0
2022-11-24T02:49:43.745Z,0
2022-11-24T02:55:03.381Z,0
2022-11-24T03:05:41.984Z,0
2022-11-24T03:17:35.853Z,0
2022-11-24T03:21:38.882Z,0
2022-11-24T03:37:36.099Z,0
2022-11-24T03:42:55.614Z,0
2022-11-24T03:48:14.492Z,0
2022-11-24T03:53:33.649Z,0
2022-11-24T04:04:11.149Z,0
2022-11-24T04:20:07.864Z,0
2022-11-24T04:30:47.153Z,0
2022-11-24T04:36:06.172Z,0
2022-11-24T04:46:45.304Z,0
2022-11-24T05:02:42.197Z,0
2022-11-24T05:13:21.321Z,0
2022-11-24T05:18:40.548Z,0
2022-11-24T05:29:19.044Z,0
2022-11-24T05:45:16.733Z,0
2022-11-24T05:55:55.461Z,0
2022-11-24T06:01:14.866Z,0
2022-11-24T06:11:53.971Z,0
2022-11-24T06:22:32.527Z,0
2022-11-24T06:27:51.675Z,0
2022-11-24T06:33:09.743Z,0
2022-11-24T06:38:28.528Z,3
2022-11-24T06:43:47.476Z,16.45
2022-11-24T06:54:27.025Z,17.85
2022-11-24T06:59:46.067Z,19.85
2022-11-24T07:10:24.399Z,22.62
2022-11-24T07:16:58.607Z,23.06
2022-11-24T07:26:23.139Z,22.89
2022-11-24T07:31:42.235Z,23.65
2022-11-24T07:37:00.936Z,30.48
2022-11-24T07:45:34.012Z,26.79
2022-11-24T07:52:57.067Z,24.98
2022-11-24T08:03:36.869Z,30.15
2022-11-24T08:15:30.507Z,29.23
2022-11-24T08:35:33.411Z,33.31
2022-11-24T08:46:12.621Z,55.53
2022-11-24T08:56:50.930Z,36.19
2022-11-24T09:02:10.680Z,37.33
2022-11-24T09:16:02.559Z,45.59
2022-11-24T09:20:18.027Z,45.85
2022-11-24T09:55:21.965Z,48.9
2022-11-24T10:00:40.687Z,77.42
2022-11-24T10:11:17.742Z,85.73
2022-11-24T10:16:37.522Z,143.65
2022-11-24T10:21:57.006Z,116.08
2022-11-24T10:27:16.543Z,67.61
2022-11-24T10:37:54.931Z,143.58
2022-11-24T10:43:13.690Z,98.56
2022-11-24T10:53:53.094Z,332.62
2022-11-24T10:59:12.020Z,388.91
2022-11-24T11:09:50.394Z,171.79
2022-11-24T11:25:47.053Z,98
2022-11-24T11:36:25.970Z,127.26
2022-11-24T11:47:05.102Z,77.3
2022-11-24T11:52:24.232Z,85.17
2022-11-24T12:03:02.781Z,233.68
2022-11-24T12:08:22.010Z,295.99
2022-11-24T12:19:00.157Z,148.04
2022-11-24T12:24:19.148Z,151.48
2022-11-24T12:34:57.731Z,70.58
2022-11-24T12:50:55.598Z,59.81
2022-11-24T13:06:52.935Z,68.67
2022-11-24T13:17:39.535Z,79.2
2022-11-24T13:22:59.651Z,81.61
2022-11-24T13:33:29.087Z,101.73
2022-11-24T13:49:53.867Z,59.37
2022-11-24T13:55:13.179Z,61.42
2022-11-24T14:05:51.634Z,51.07
2022-11-24T14:21:49.572Z,52.76
2022-11-24T14:28:23.733Z,49.41
2022-11-24T14:32:27.789Z,37.5
2022-11-24T14:43:07.789Z,32.05
2022-11-24T14:48:26.679Z,33.29
2022-11-24T14:53:46.025Z,36.25
2022-11-24T14:59:04.990Z,35.14
2022-11-24T15:05:01.312Z,31.99
2022-11-24T15:09:43.865Z,29.3
2022-11-24T15:15:02.298Z,28.93
2022-11-24T15:25:40.459Z,24.68
2022-11-24T15:41:38.529Z,6
2022-11-24T15:52:17.630Z,0
2022-11-24T15:57:36.596Z,0
2022-11-24T16:08:24.656Z,0
2022-11-24T16:24:13.201Z,0
2022-11-24T16:34:51.521Z,0
2022-11-24T16:40:10.335Z,0
2022-11-24T16:50:49.499Z,0
2022-11-24T17:06:46.703Z,0
2022-11-24T17:17:24.951Z,0
2022-11-24T17:22:44.246Z,0
2022-11-24T17:28:03.093Z,0
2022-11-24T17:33:22.125Z,0
2022-11-24T17:38:41.052Z,0
2022-11-24T17:44:00.300Z,0
2022-11-24T17:49:19.408Z,0
2022-11-24T17:54:46.219Z,0
2022-11-24T17:59:58.121Z,0
2022-11-24T18:05:16.942Z,0
2022-11-24T18:10:36.276Z,0
2022-11-24T18:15:55.435Z,0
2022-11-24T18:21:14.554Z,0
2022-11-24T18:26:34.056Z,0
2022-11-24T18:31:53.147Z,0
2022-11-24T18:42:32.142Z,0
2022-11-24T18:47:51.516Z,0
2022-11-24T18:58:30.112Z,0
2022-11-24T19:03:49.616Z,0
2022-11-24T19:30:27.411Z,0
2022-11-24T19:41:06.831Z,0
2022-11-24T19:46:24.615Z,0
2022-11-24T19:57:03.334Z,0
2022-11-24T20:13:00.618Z,0
2022-11-24T20:23:39.220Z,0
2022-11-24T20:28:58.656Z,0
2022-11-24T20:34:17.913Z,0
2022-11-24T20:39:37.573Z,0
2022-11-24T20:55:35.128Z,0
2022-11-24T21:11:32.979Z,0
2022-11-24T21:32:50.778Z,0
2022-11-24T21:43:29.532Z,0
2022-11-24T21:48:49.310Z,0
2022-11-24T21:59:28.363Z,0
2022-11-24T22:04:57.442Z,0
2022-11-24T22:15:26.887Z,0
2022-11-24T22:26:06.019Z,0
2022-11-24T22:31:25.286Z,0
2022-11-24T22:42:03.875Z,0
2022-11-24T22:47:22.796Z,0
2022-11-24T22:52:43.290Z,0
2022-11-24T22:58:03.046Z,0
2022-11-24T23:03:22.059Z,0
2022-11-24T23:14:01.025Z,0
2022-11-24T23:24:39.541Z,0
2022-11-24T23:29:58.446Z,0
2022-11-24T23:40:37.284Z,0
2022-11-24T23:46:04.732Z,0
2022-11-24T23:56:34.851Z,0
